Peetz, CO

4:17 PM MDT on July 10, 2014 (GMT -0600)
Sidney Municipal (KSNY) Elev 4304 ft | 41.10 °N, 102.99 °W | Change Station

Current weather conditions updated 24 minutes ago

Clear
Clear
92 °F
Feels Like 92 °F
N
10
Wind Variable Wind from South
Gusts 18 mph

Tomorrow is forecast to be Cooler than today. Thunderstorms tomorrow night.

Today
High -- | Low -- °F
--% Chance of Precip.
Yesterday
High -- | Low -- °F
Precip. -- in
5:29 AM 8:25 PM
Waxing Gibbous, 96% visible
Pressure 29.75 in
Visibility 10.0 miles
Clouds Clear
Dew Point 49 °F
Humidity 23%
Rainfall 0.00 in
Snow Depth Not available.
UV 8 out of 12
Pollen 5.20 out of 12
Air Quality Not available.
Flu Activity Local Activity
METAR KSNY 102153Z AUTO 18009G16KT 10SM CLR 33/09 A2993 RMK AO2 LTG DSNT W-N SLP075 T03330094

More Conditions Fewer Conditions

Pressure 29.75 in
Visibility 10.0 miles
Clouds Clear
Dew Point 49 °F
Humidity 23%
Rainfall 0.00 in
Snow Depth Not available.
UV 8 out of 12
Pollen 5.20 out of 12
Air Quality Not available.
Flu Activity Local Activity
METAR KSNY 102153Z AUTO 18009G16KT 10SM CLR 33/09 A2993 RMK AO2 LTG DSNT W-N SLP075 T03330094

More Conditions Fewer Conditions

10-Day Weather Forecast

Almanac

Astronomy

Jul. 10, 2014 Rise Set
Actual Time 5:29 AM MDT 8:25 PM MDT
Civil Twilight 4:56 AM MDT 8:58 PM MDT
Nautical Twilight 4:14 AM MDT 9:39 PM MDT
Astronomical Twilight 3:26 AM MDT 10:28 PM MDT
Moon 6:40 PM MDT 3:43 AM MDT
Length of Visible Light 16h 01m
Length of Day
14h 55m
Tomorrow will be 1m 10s shorter.
Waxing Gibbous, 96% of the Moon is Illuminated
Today
Waxing Gibbous
Jul 12
Full
Jul 18
Last Quarter
Jul 26
New
Aug 3
First Quarter

Today's Extremes

State Highs State Lows

Community

WunderPhotos

Upload Photos

1,732,282 photos uploaded!

Nearby

Snow Depth

Station Depth Elevation
Copeland Lake 0 in 8600 ft
Willow Park 4 in 10700 ft
Lake Irene 2 in 10700 ft
Rawah 21 in 9020 ft
Grizzly Peak 4 in 11100 ft

Earthquake Activity

City Distance Mag. Time & Date
No recent earthquake activity has been reported nearby.
Minimum magnitude displayed is 2.5.

Coastal Water Temperatures

Place Temperature
No Stations Reporting

Nearby Weather Stations

Station Location Temp. Heat Index Dew Point Humidity Wind Precip. Elev Updated Type
MesoWest BROWN2 , Sidney, NE 86 °F 83 °F - - SW  at  2 mph 0.00 in / hr 4229 ft 3:00 PM MDT MADIS
MesoWest SUNOL2 , Lodgepole, NE 90 °F 87 °F - - SSW  at  7 mph 0.00 in / hr 3961 ft 3:00 PM MDT MADIS

Show More Stations Show Fewer Stations